Terminal Aerodrome Forecast
Issued by NWS Charleston, WV

Current Version | Previous Version | Graphics & Text | Print | Product List | Glossary On
Versions: 1 2 3 4 5 6 7 8 9 10 11 12 13 14 15 16 17 18 19 20 21 22 23
405
FTUS41 KRLX 270536
TAFBKW
TAF
KBKW 270536Z 2706/2806 32004KT P6SM BKN020
      TEMPO 2706/2708 BKN006
     FM270800 32004KT P6SM BKN025
     FM271100 VRB03KT P6SM SCT025
     FM271300 VRB03KT P6SM SCT070
     FM271500 28008G16KT P6SM FEW200
     FM272300 VRB04KT P6SM SKC=

USA.gov is the U.S. government's official web portal to all federal, state and local government web resources and services.